LGSKLGSM

Guest
Details From LGSK - Skiathos Alexandros Papadiamantis
To LGSM - SAMOS
Flight Number -
Tags decoded
Created
Modified
Stats Distance 205 nm / 379 km
Max Altitude 0 ft / 0 m
Waypoints 9
Social Downloads 3
Likes 0
Share VATSIM

Download

Looking for another format? Having issues loading an existing format? Contact us
Advertisement - Login to hide

Notes

Requested: LGSK KOROS G33 LUPIS G18 MES UL609 PIPEN H59 ORMOS LGSM

Route

LGSK KOROS G33 LUPIS G18 PIPEN H59 ORMOS LGSM

ID Type Via Altitude Latitude Longitude Leg Dist Tot Dist Heading (true) Name
O LGSK APT - 0 ft / 0 m 39.17710˚ 23.50368˚ - 0 nm - Skiathos Alexandros Papadiamantis
KOROS FIX - 0 ft / 0 m 39.09972˚ 24.91583˚ 65 nm 65 nm 94° / 94° -
LUPIS FIX G33 (AWY-LO) 0 ft / 0 m 39.21056˚ 24.95889˚ 6 nm 72 nm 17° / 17° -
NEMIS FIX G18 (AWY-LO) 0 ft / 0 m 38.37306˚ 25.78778˚ 63 nm 136 nm 142° / 143° -
MES VOR G18 (AWY-LO) 0 ft / 0 m 38.25167˚ 25.90556˚ 9 nm 145 nm 143° / 143° MESTA VOR-DME
PIPEN FIX G18 (AWY-LO) 0 ft / 0 m 38.06139˚ 26.11667˚ 15 nm 160 nm 139° / 139° -
NISOS FIX H59 (AWY-LO) 0 ft / 0 m 37.91917˚ 26.41889˚ 16 nm 177 nm 121° / 121° -
ORMOS FIX H59 (AWY-LO) 0 ft / 0 m 37.84250˚ 26.58083˚ 8 nm 186 nm 121° / 121° -
O LGSM APT - 0 ft / 0 m 37.68901˚ 26.91112˚ 18 nm 204 nm 120° / 121° SAMOS

Altitude Profile

Advertisement - Login to hide

Weather


0- 5 10 15 20 25 30 35+ Temperature / ° C

Clouds and Precipitation
Forecast for 2017-12-14 18:00 UTC. Updated 2 hours ago

Ground ~20,000 ft ~40,000 ft Winds

LGSK

Details ICAO LGSK (JSI)
Name Skiathos Alexandros Papadiamantis
Region Greece
Timezone Europe/Athens (UTC+2.0)
Stats Elevation 54 ft / 16 m (AMSL)
Location 39.177100° 23.503677°
Runways 1
Magnetic Variation 4.553° E

METAR

LGSK 141450Z 23006KT 9999 FEW020 18/08 Q1013

Decode

TAF

Not found

Departure Runways

ID Width Length Bearing (true) Bearing (mag) Surface Threshold Offset Overrun Length
02 98 ft / 30 m 5,535 ft / 1,687 m 18.96° 14.41° Asphalt 190 ft / 58 m 0 ft / 0 m
20 98 ft / 30 m 5,535 ft / 1,687 m 198.97° 194.42° Asphalt 0 ft / 0 m 242 ft / 74 m

LGSM

Details ICAO LGSM (SMI)
Name SAMOS
Region Greece
Timezone Europe/Athens (UTC+2.0)
Stats Elevation 19 ft / 6 m (AMSL)
Location 37.689012° 26.911123°
Runways 1
Magnetic Variation 4.801° E

METAR

LGSM 141450Z 14005KT 9999 FEW020 17/14 Q1015

Decode

TAF

Not found

Destination Runways

ID Width Length Bearing (true) Bearing (mag) Surface Threshold Offset Overrun Length
09 148 ft / 45 m 6,690 ft / 2,039 m 94.02° 89.22° Asphalt 230 ft / 70 m 0 ft / 0 m
27 148 ft / 45 m 6,690 ft / 2,039 m 274.03° 269.23° Asphalt 0 ft / 0 m 0 ft / 0 m

Popular Alternatives